sensor_id;sensor_type;location;lat;lon;timestamp;P1;P2;P0
56688;PMS5003;42565;53.342;-1.534;2023-06-24T00:02:26;0;0;
56688;PMS5003;42565;53.342;-1.534;2023-06-24T00:04:54;4;4;
56688;PMS5003;42565;53.342;-1.534;2023-06-24T00:07:22;1;1;
56688;PMS5003;42565;53.342;-1.534;2023-06-24T00:09:49;3;3;
56688;PMS5003;42565;53.342;-1.534;2023-06-24T00:12:17;2;2;
56688;PMS5003;42565;53.342;-1.534;2023-06-24T00:14:44;2;2;
56688;PMS5003;42565;53.342;-1.534;2023-06-24T00:17:13;2;2;
56688;PMS5003;42565;53.342;-1.534;2023-06-24T00:19:40;2;2;
56688;PMS5003;42565;53.342;-1.534;2023-06-24T00:22:07;3;3;
56688;PMS5003;42565;53.342;-1.534;2023-06-24T00:24:34;3;3;
56688;PMS5003;42565;53.342;-1.534;2023-06-24T00:27:01;2;2;
56688;PMS5003;42565;53.342;-1.534;2023-06-24T00:29:28;2;2;
56688;PMS5003;42565;53.342;-1.534;2023-06-24T00:31:56;4;2;
56688;PMS5003;42565;53.342;-1.534;2023-06-24T00:34:23;2;2;
56688;PMS5003;42565;53.342;-1.534;2023-06-24T00:36:50;3;2;
56688;PMS5003;42565;53.342;-1.534;2023-06-24T00:39:18;2;2;
56688;PMS5003;42565;53.342;-1.534;2023-06-24T00:41:45;3;2;
56688;PMS5003;42565;53.342;-1.534;2023-06-24T00:44:13;2;1;
56688;PMS5003;42565;53.342;-1.534;2023-06-24T00:46:40;2;2;
56688;PMS5003;42565;53.342;-1.534;2023-06-24T00:49:08;2;2;
56688;PMS5003;42565;53.342;-1.534;2023-06-24T00:51:35;3;3;
56688;PMS5003;42565;53.342;-1.534;2023-06-24T00:54:03;2;2;
56688;PMS5003;42565;53.342;-1.534;2023-06-24T00:56:31;3;3;
56688;PMS5003;42565;53.342;-1.534;2023-06-24T00:59:01;2;2;
56688;PMS5003;42565;53.342;-1.534;2023-06-24T01:01:30;2;2;
56688;PMS5003;42565;53.342;-1.534;2023-06-24T01:04:01;2;2;
56688;PMS5003;42565;53.342;-1.534;2023-06-24T01:06:29;2;2;
56688;PMS5003;42565;53.342;-1.534;2023-06-24T01:08:56;2;2;
56688;PMS5003;42565;53.342;-1.534;2023-06-24T01:11:24;2;2;
56688;PMS5003;42565;53.342;-1.534;2023-06-24T01:13:52;2;2;
56688;PMS5003;42565;53.342;-1.534;2023-06-24T01:16:26;2;2;
56688;PMS5003;42565;53.342;-1.534;2023-06-24T01:19:00;3;3;
56688;PMS5003;42565;53.342;-1.534;2023-06-24T01:21:35;2;1;
56688;PMS5003;42565;53.342;-1.534;2023-06-24T01:24:25;3;3;
56688;PMS5003;42565;53.342;-1.534;2023-06-24T01:28:13;2;2;
56688;PMS5003;42565;53.342;-1.534;2023-06-24T01:30:55;2;2;
56688;PMS5003;42565;53.342;-1.534;2023-06-24T01:34:40;2;2;
56688;PMS5003;42565;53.342;-1.534;2023-06-24T01:37:14;3;3;
56688;PMS5003;42565;53.342;-1.534;2023-06-24T01:39:46;2;2;
56688;PMS5003;42565;53.342;-1.534;2023-06-24T01:42:21;3;2;
56688;PMS5003;42565;53.342;-1.534;2023-06-24T01:44:49;2;2;
56688;PMS5003;42565;53.342;-1.534;2023-06-24T01:47:18;3;3;
56688;PMS5003;42565;53.342;-1.534;2023-06-24T01:49:49;3;3;
56688;PMS5003;42565;53.342;-1.534;2023-06-24T01:52:20;3;3;
56688;PMS5003;42565;53.342;-1.534;2023-06-24T01:54:49;4;3;
56688;PMS5003;42565;53.342;-1.534;2023-06-24T01:57:19;4;4;
56688;PMS5003;42565;53.342;-1.534;2023-06-24T01:59:49;3;3;
56688;PMS5003;42565;53.342;-1.534;2023-06-24T02:02:17;4;4;
56688;PMS5003;42565;53.342;-1.534;2023-06-24T02:04:45;1;1;
56688;PMS5003;42565;53.342;-1.534;2023-06-24T02:07:15;5;4;
56688;PMS5003;42565;53.342;-1.534;2023-06-24T02:09:45;4;3;
56688;PMS5003;42565;53.342;-1.534;2023-06-24T02:12:12;2;2;
56688;PMS5003;42565;53.342;-1.534;2023-06-24T02:14:40;3;3;
56688;PMS5003;42565;53.342;-1.534;2023-06-24T02:17:08;3;2;
56688;PMS5003;42565;53.342;-1.534;2023-06-24T02:19:37;2;2;
56688;PMS5003;42565;53.342;-1.534;2023-06-24T02:22:05;3;3;
56688;PMS5003;42565;53.342;-1.534;2023-06-24T02:24:34;3;2;
56688;PMS5003;42565;53.342;-1.534;2023-06-24T02:27:04;3;3;
56688;PMS5003;42565;53.342;-1.534;2023-06-24T02:29:33;3;3;
56688;PMS5003;42565;53.342;-1.534;2023-06-24T02:32:02;3;3;
56688;PMS5003;42565;53.342;-1.534;2023-06-24T02:34:29;3;3;
56688;PMS5003;42565;53.342;-1.534;2023-06-24T02:36:57;2;2;
56688;PMS5003;42565;53.342;-1.534;2023-06-24T02:39:25;1;1;
56688;PMS5003;42565;53.342;-1.534;2023-06-24T02:41:52;3;3;
56688;PMS5003;42565;53.342;-1.534;2023-06-24T02:44:19;3;3;
56688;PMS5003;42565;53.342;-1.534;2023-06-24T02:46:46;3;3;
56688;PMS5003;42565;53.342;-1.534;2023-06-24T02:49:16;2;1;
56688;PMS5003;42565;53.342;-1.534;2023-06-24T02:51:45;4;4;
56688;PMS5003;42565;53.342;-1.534;2023-06-24T02:54:12;4;3;
56688;PMS5003;42565;53.342;-1.534;2023-06-24T02:56:41;3;3;
56688;PMS5003;42565;53.342;-1.534;2023-06-24T02:59:09;3;3;
56688;PMS5003;42565;53.342;-1.534;2023-06-24T03:01:36;4;4;
56688;PMS5003;42565;53.342;-1.534;2023-06-24T03:04:06;4;3;
56688;PMS5003;42565;53.342;-1.534;2023-06-24T03:06:38;5;5;
56688;PMS5003;42565;53.342;-1.534;2023-06-24T03:09:07;4;4;
56688;PMS5003;42565;53.342;-1.534;2023-06-24T03:11:40;4;4;
56688;PMS5003;42565;53.342;-1.534;2023-06-24T03:14:07;3;3;
56688;PMS5003;42565;53.342;-1.534;2023-06-24T03:16:34;5;4;
56688;PMS5003;42565;53.342;-1.534;2023-06-24T03:19:01;5;5;
56688;PMS5003;42565;53.342;-1.534;2023-06-24T03:21:29;3;3;
56688;PMS5003;42565;53.342;-1.534;2023-06-24T03:23:56;5;4;
56688;PMS5003;42565;53.342;-1.534;2023-06-24T03:26:24;3;3;
56688;PMS5003;42565;53.342;-1.534;2023-06-24T03:28:56;4;4;
56688;PMS5003;42565;53.342;-1.534;2023-06-24T03:31:24;5;5;
56688;PMS5003;42565;53.342;-1.534;2023-06-24T03:33:52;5;5;
56688;PMS5003;42565;53.342;-1.534;2023-06-24T03:36:19;4;4;
56688;PMS5003;42565;53.342;-1.534;2023-06-24T03:38:47;5;5;
56688;PMS5003;42565;53.342;-1.534;2023-06-24T03:41:14;7;6;
56688;PMS5003;42565;53.342;-1.534;2023-06-24T03:43:48;5;5;
56688;PMS5003;42565;53.342;-1.534;2023-06-24T03:46:15;7;6;
56688;PMS5003;42565;53.342;-1.534;2023-06-24T03:48:49;6;5;
56688;PMS5003;42565;53.342;-1.534;2023-06-24T03:51:16;5;5;
56688;PMS5003;42565;53.342;-1.534;2023-06-24T03:53:43;6;6;
56688;PMS5003;42565;53.342;-1.534;2023-06-24T03:56:10;5;5;
56688;PMS5003;42565;53.342;-1.534;2023-06-24T03:58:37;3;3;
56688;PMS5003;42565;53.342;-1.534;2023-06-24T04:01:03;3;3;
56688;PMS5003;42565;53.342;-1.534;2023-06-24T04:03:31;5;4;
56688;PMS5003;42565;53.342;-1.534;2023-06-24T04:05:59;3;3;
56688;PMS5003;42565;53.342;-1.534;2023-06-24T04:08:25;4;4;
56688;PMS5003;42565;53.342;-1.534;2023-06-24T04:10:52;4;4;
56688;PMS5003;42565;53.342;-1.534;2023-06-24T04:13:23;4;3;
56688;PMS5003;42565;53.342;-1.534;2023-06-24T04:15:50;4;3;
56688;PMS5003;42565;53.342;-1.534;2023-06-24T04:18:18;4;4;
56688;PMS5003;42565;53.342;-1.534;2023-06-24T04:20:45;3;3;
56688;PMS5003;42565;53.342;-1.534;2023-06-24T04:23:13;4;4;
56688;PMS5003;42565;53.342;-1.534;2023-06-24T04:25:41;4;4;
56688;PMS5003;42565;53.342;-1.534;2023-06-24T04:28:08;4;4;
56688;PMS5003;42565;53.342;-1.534;2023-06-24T04:30:35;4;4;
56688;PMS5003;42565;53.342;-1.534;2023-06-24T04:33:02;4;3;
56688;PMS5003;42565;53.342;-1.534;2023-06-24T04:35:30;2;2;
56688;PMS5003;42565;53.342;-1.534;2023-06-24T04:37:57;4;4;
56688;PMS5003;42565;53.342;-1.534;2023-06-24T04:40:24;4;4;
56688;PMS5003;42565;53.342;-1.534;2023-06-24T04:42:51;5;3;
56688;PMS5003;42565;53.342;-1.534;2023-06-24T04:45:18;4;4;
56688;PMS5003;42565;53.342;-1.534;2023-06-24T04:47:46;4;4;
56688;PMS5003;42565;53.342;-1.534;2023-06-24T04:50:13;4;4;
56688;PMS5003;42565;53.342;-1.534;2023-06-24T04:52:41;6;5;
56688;PMS5003;42565;53.342;-1.534;2023-06-24T04:55:08;3;3;
56688;PMS5003;42565;53.342;-1.534;2023-06-24T04:57:36;5;4;
56688;PMS5003;42565;53.342;-1.534;2023-06-24T05:00:04;5;5;
56688;PMS5003;42565;53.342;-1.534;2023-06-24T05:02:32;4;4;
56688;PMS5003;42565;53.342;-1.534;2023-06-24T05:04:58;5;5;
56688;PMS5003;42565;53.342;-1.534;2023-06-24T05:07:25;4;4;
56688;PMS5003;42565;53.342;-1.534;2023-06-24T05:09:52;3;3;
56688;PMS5003;42565;53.342;-1.534;2023-06-24T05:12:19;4;4;
56688;PMS5003;42565;53.342;-1.534;2023-06-24T05:14:49;5;4;
56688;PMS5003;42565;53.342;-1.534;2023-06-24T05:17:17;4;4;
56688;PMS5003;42565;53.342;-1.534;2023-06-24T05:19:44;4;4;
56688;PMS5003;42565;53.342;-1.534;2023-06-24T05:22:12;5;5;
56688;PMS5003;42565;53.342;-1.534;2023-06-24T05:24:39;4;3;
56688;PMS5003;42565;53.342;-1.534;2023-06-24T05:27:07;6;6;
56688;PMS5003;42565;53.342;-1.534;2023-06-24T05:29:34;4;4;
56688;PMS5003;42565;53.342;-1.534;2023-06-24T05:32:02;5;5;
56688;PMS5003;42565;53.342;-1.534;2023-06-24T05:34:30;4;4;
56688;PMS5003;42565;53.342;-1.534;2023-06-24T05:36:58;7;6;
56688;PMS5003;42565;53.342;-1.534;2023-06-24T05:39:25;6;6;
56688;PMS5003;42565;53.342;-1.534;2023-06-24T05:41:52;5;5;
56688;PMS5003;42565;53.342;-1.534;2023-06-24T05:44:19;7;7;
56688;PMS5003;42565;53.342;-1.534;2023-06-24T05:46:46;5;5;
56688;PMS5003;42565;53.342;-1.534;2023-06-24T05:49:14;6;6;
56688;PMS5003;42565;53.342;-1.534;2023-06-24T05:51:41;6;6;
56688;PMS5003;42565;53.342;-1.534;2023-06-24T05:54:14;6;6;
56688;PMS5003;42565;53.342;-1.534;2023-06-24T05:56:41;7;7;
56688;PMS5003;42565;53.342;-1.534;2023-06-24T05:59:08;5;5;
56688;PMS5003;42565;53.342;-1.534;2023-06-24T06:01:36;7;7;
56688;PMS5003;42565;53.342;-1.534;2023-06-24T06:04:03;6;6;
56688;PMS5003;42565;53.342;-1.534;2023-06-24T06:06:31;6;6;
56688;PMS5003;42565;53.342;-1.534;2023-06-24T06:08:58;5;5;
56688;PMS5003;42565;53.342;-1.534;2023-06-24T06:11:26;8;6;
56688;PMS5003;42565;53.342;-1.534;2023-06-24T06:13:53;6;6;
56688;PMS5003;42565;53.342;-1.534;2023-06-24T06:16:20;7;7;
56688;PMS5003;42565;53.342;-1.534;2023-06-24T06:18:47;7;7;
56688;PMS5003;42565;53.342;-1.534;2023-06-24T06:21:15;6;6;
56688;PMS5003;42565;53.342;-1.534;2023-06-24T06:23:42;7;7;
56688;PMS5003;42565;53.342;-1.534;2023-06-24T06:26:10;6;5;
56688;PMS5003;42565;53.342;-1.534;2023-06-24T06:28:37;7;7;
56688;PMS5003;42565;53.342;-1.534;2023-06-24T06:31:04;10;8;
56688;PMS5003;42565;53.342;-1.534;2023-06-24T06:33:31;6;6;
56688;PMS5003;42565;53.342;-1.534;2023-06-24T06:35:59;8;7;
56688;PMS5003;42565;53.342;-1.534;2023-06-24T06:38:26;6;6;
56688;PMS5003;42565;53.342;-1.534;2023-06-24T06:40:58;9;8;
56688;PMS5003;42565;53.342;-1.534;2023-06-24T06:43:26;8;7;
56688;PMS5003;42565;53.342;-1.534;2023-06-24T06:45:53;7;7;
56688;PMS5003;42565;53.342;-1.534;2023-06-24T06:48:20;8;7;
56688;PMS5003;42565;53.342;-1.534;2023-06-24T06:50:48;6;6;
56688;PMS5003;42565;53.342;-1.534;2023-06-24T06:53:15;8;6;
56688;PMS5003;42565;53.342;-1.534;2023-06-24T06:55:42;4;4;
56688;PMS5003;42565;53.342;-1.534;2023-06-24T06:58:10;6;6;
56688;PMS5003;42565;53.342;-1.534;2023-06-24T07:00:37;6;6;
56688;PMS5003;42565;53.342;-1.534;2023-06-24T07:03:05;7;7;
56688;PMS5003;42565;53.342;-1.534;2023-06-24T07:05:32;6;6;
56688;PMS5003;42565;53.342;-1.534;2023-06-24T07:08:01;7;7;
56688;PMS5003;42565;53.342;-1.534;2023-06-24T07:10:28;7;6;
56688;PMS5003;42565;53.342;-1.534;2023-06-24T07:12:56;6;5;
56688;PMS5003;42565;53.342;-1.534;2023-06-24T07:15:23;6;6;
56688;PMS5003;42565;53.342;-1.534;2023-06-24T07:17:51;5;5;
56688;PMS5003;42565;53.342;-1.534;2023-06-24T07:20:19;5;5;
56688;PMS5003;42565;53.342;-1.534;2023-06-24T07:22:47;7;7;
56688;PMS5003;42565;53.342;-1.534;2023-06-24T07:25:13;6;6;
56688;PMS5003;42565;53.342;-1.534;2023-06-24T07:27:41;7;6;
56688;PMS5003;42565;53.342;-1.534;2023-06-24T07:30:08;5;5;
56688;PMS5003;42565;53.342;-1.534;2023-06-24T07:32:36;9;7;
56688;PMS5003;42565;53.342;-1.534;2023-06-24T07:35:04;4;4;
56688;PMS5003;42565;53.342;-1.534;2023-06-24T07:37:33;5;5;
56688;PMS5003;42565;53.342;-1.534;2023-06-24T07:40:01;7;6;
56688;PMS5003;42565;53.342;-1.534;2023-06-24T07:42:28;6;5;
56688;PMS5003;42565;53.342;-1.534;2023-06-24T07:44:56;5;5;
56688;PMS5003;42565;53.342;-1.534;2023-06-24T07:47:24;5;5;
56688;PMS5003;42565;53.342;-1.534;2023-06-24T07:49:51;5;4;
56688;PMS5003;42565;53.342;-1.534;2023-06-24T07:52:19;8;6;
56688;PMS5003;42565;53.342;-1.534;2023-06-24T07:54:46;5;5;
56688;PMS5003;42565;53.342;-1.534;2023-06-24T07:57:13;4;4;
56688;PMS5003;42565;53.342;-1.534;2023-06-24T07:59:41;4;3;
56688;PMS5003;42565;53.342;-1.534;2023-06-24T08:02:09;4;4;
56688;PMS5003;42565;53.342;-1.534;2023-06-24T08:04:36;4;4;
56688;PMS5003;42565;53.342;-1.534;2023-06-24T08:07:04;5;4;
56688;PMS5003;42565;53.342;-1.534;2023-06-24T08:09:31;4;4;
56688;PMS5003;42565;53.342;-1.534;2023-06-24T08:11:59;4;4;
56688;PMS5003;42565;53.342;-1.534;2023-06-24T08:14:26;3;3;
56688;PMS5003;42565;53.342;-1.534;2023-06-24T08:16:53;4;3;
56688;PMS5003;42565;53.342;-1.534;2023-06-24T08:19:20;3;2;
56688;PMS5003;42565;53.342;-1.534;2023-06-24T08:21:47;2;2;
56688;PMS5003;42565;53.342;-1.534;2023-06-24T08:24:14;3;3;
56688;PMS5003;42565;53.342;-1.534;2023-06-24T08:26:41;4;4;
56688;PMS5003;42565;53.342;-1.534;2023-06-24T08:29:09;5;4;
56688;PMS5003;42565;53.342;-1.534;2023-06-24T08:31:36;3;3;
56688;PMS5003;42565;53.342;-1.534;2023-06-24T08:34:04;4;4;
56688;PMS5003;42565;53.342;-1.534;2023-06-24T08:36:32;3;3;
56688;PMS5003;42565;53.342;-1.534;2023-06-24T08:38:59;2;2;
56688;PMS5003;42565;53.342;-1.534;2023-06-24T08:41:26;4;3;
56688;PMS5003;42565;53.342;-1.534;2023-06-24T08:43:54;4;4;
56688;PMS5003;42565;53.342;-1.534;2023-06-24T08:46:22;2;2;
56688;PMS5003;42565;53.342;-1.534;2023-06-24T08:48:51;5;5;
56688;PMS5003;42565;53.342;-1.534;2023-06-24T08:51:25;3;3;
56688;PMS5003;42565;53.342;-1.534;2023-06-24T08:53:56;4;3;
56688;PMS5003;42565;53.342;-1.534;2023-06-24T08:56:24;5;5;
56688;PMS5003;42565;53.342;-1.534;2023-06-24T08:58:52;5;5;
56688;PMS5003;42565;53.342;-1.534;2023-06-24T09:01:20;6;5;
56688;PMS5003;42565;53.342;-1.534;2023-06-24T09:03:47;7;6;
56688;PMS5003;42565;53.342;-1.534;2023-06-24T09:06:14;5;4;
56688;PMS5003;42565;53.342;-1.534;2023-06-24T09:08:51;6;5;
56688;PMS5003;42565;53.342;-1.534;2023-06-24T09:11:22;4;4;
56688;PMS5003;42565;53.342;-1.534;2023-06-24T09:13:54;5;5;
56688;PMS5003;42565;53.342;-1.534;2023-06-24T09:16:21;3;3;
56688;PMS5003;42565;53.342;-1.534;2023-06-24T09:18:48;4;4;
56688;PMS5003;42565;53.342;-1.534;2023-06-24T09:21:21;4;4;
56688;PMS5003;42565;53.342;-1.534;2023-06-24T09:23:50;4;4;
56688;PMS5003;42565;53.342;-1.534;2023-06-24T09:26:19;6;5;
56688;PMS5003;42565;53.342;-1.534;2023-06-24T09:28:47;5;5;
56688;PMS5003;42565;53.342;-1.534;2023-06-24T09:31:14;4;4;
56688;PMS5003;42565;53.342;-1.534;2023-06-24T09:33:42;5;5;
56688;PMS5003;42565;53.342;-1.534;2023-06-24T09:36:11;6;5;
56688;PMS5003;42565;53.342;-1.534;2023-06-24T09:38:41;5;5;
56688;PMS5003;42565;53.342;-1.534;2023-06-24T09:41:09;4;4;
56688;PMS5003;42565;53.342;-1.534;2023-06-24T09:43:36;4;4;
56688;PMS5003;42565;53.342;-1.534;2023-06-24T09:46:04;4;4;
56688;PMS5003;42565;53.342;-1.534;2023-06-24T09:48:32;5;4;
56688;PMS5003;42565;53.342;-1.534;2023-06-24T09:51:00;6;5;
56688;PMS5003;42565;53.342;-1.534;2023-06-24T09:53:29;4;4;
56688;PMS5003;42565;53.342;-1.534;2023-06-24T09:55:57;3;3;
56688;PMS5003;42565;53.342;-1.534;2023-06-24T09:58:26;4;4;
56688;PMS5003;42565;53.342;-1.534;2023-06-24T10:00:57;6;5;
56688;PMS5003;42565;53.342;-1.534;2023-06-24T10:03:27;4;4;
56688;PMS5003;42565;53.342;-1.534;2023-06-24T10:05:56;3;3;
56688;PMS5003;42565;53.342;-1.534;2023-06-24T10:08:24;3;3;
56688;PMS5003;42565;53.342;-1.534;2023-06-24T10:10:52;6;5;
56688;PMS5003;42565;53.342;-1.534;2023-06-24T10:13:20;4;4;
56688;PMS5003;42565;53.342;-1.534;2023-06-24T10:15:48;4;4;
56688;PMS5003;42565;53.342;-1.534;2023-06-24T10:18:47;3;3;
56688;PMS5003;42565;53.342;-1.534;2023-06-24T10:21:15;2;2;
56688;PMS5003;42565;53.342;-1.534;2023-06-24T10:23:43;3;3;
56688;PMS5003;42565;53.342;-1.534;2023-06-24T10:26:23;4;4;
56688;PMS5003;42565;53.342;-1.534;2023-06-24T10:29:10;4;4;
56688;PMS5003;42565;53.342;-1.534;2023-06-24T10:31:56;6;5;
56688;PMS5003;42565;53.342;-1.534;2023-06-24T10:34:31;3;3;
56688;PMS5003;42565;53.342;-1.534;2023-06-24T10:37:01;3;3;
56688;PMS5003;42565;53.342;-1.534;2023-06-24T10:39:45;6;5;
56688;PMS5003;42565;53.342;-1.534;2023-06-24T10:42:46;1;1;
56688;PMS5003;42565;53.342;-1.534;2023-06-24T10:45:15;3;3;
56688;PMS5003;42565;53.342;-1.534;2023-06-24T10:47:44;3;3;
56688;PMS5003;42565;53.342;-1.534;2023-06-24T10:50:13;4;3;
56688;PMS5003;42565;53.342;-1.534;2023-06-24T10:52:42;4;4;
56688;PMS5003;42565;53.342;-1.534;2023-06-24T10:55:11;3;3;
56688;PMS5003;42565;53.342;-1.534;2023-06-24T10:57:41;2;2;
56688;PMS5003;42565;53.342;-1.534;2023-06-24T11:00:09;3;3;
56688;PMS5003;42565;53.342;-1.534;2023-06-24T11:02:38;4;4;
56688;PMS5003;42565;53.342;-1.534;2023-06-24T11:05:05;3;3;
56688;PMS5003;42565;53.342;-1.534;2023-06-24T11:07:33;3;3;
56688;PMS5003;42565;53.342;-1.534;2023-06-24T11:10:02;3;2;
56688;PMS5003;42565;53.342;-1.534;2023-06-24T11:12:32;2;2;
56688;PMS5003;42565;53.342;-1.534;2023-06-24T11:15:01;2;2;
56688;PMS5003;42565;53.342;-1.534;2023-06-24T11:17:29;2;2;
56688;PMS5003;42565;53.342;-1.534;2023-06-24T11:19:57;3;3;
56688;PMS5003;42565;53.342;-1.534;2023-06-24T11:22:25;3;3;
56688;PMS5003;42565;53.342;-1.534;2023-06-24T11:24:53;3;3;
56688;PMS5003;42565;53.342;-1.534;2023-06-24T11:27:25;3;2;
56688;PMS5003;42565;53.342;-1.534;2023-06-24T11:29:53;3;3;
56688;PMS5003;42565;53.342;-1.534;2023-06-24T11:32:22;2;2;
56688;PMS5003;42565;53.342;-1.534;2023-06-24T11:34:49;2;2;
56688;PMS5003;42565;53.342;-1.534;2023-06-24T11:37:17;3;3;
56688;PMS5003;42565;53.342;-1.534;2023-06-24T11:39:45;2;2;
56688;PMS5003;42565;53.342;-1.534;2023-06-24T11:42:27;4;3;
56688;PMS5003;42565;53.342;-1.534;2023-06-24T11:44:58;1;1;
56688;PMS5003;42565;53.342;-1.534;2023-06-24T11:47:26;2;2;
56688;PMS5003;42565;53.342;-1.534;2023-06-24T11:49:55;3;3;
56688;PMS5003;42565;53.342;-1.534;2023-06-24T11:52:28;1;1;
56688;PMS5003;42565;53.342;-1.534;2023-06-24T11:54:59;2;2;
56688;PMS5003;42565;53.342;-1.534;2023-06-24T11:57:46;1;1;
56688;PMS5003;42565;53.342;-1.534;2023-06-24T12:00:15;2;2;
56688;PMS5003;42565;53.342;-1.534;2023-06-24T12:02:43;2;2;
56688;PMS5003;42565;53.342;-1.534;2023-06-24T12:05:10;2;2;
56688;PMS5003;42565;53.342;-1.534;2023-06-24T12:07:38;1;1;
56688;PMS5003;42565;53.342;-1.534;2023-06-24T12:10:07;4;2;
56688;PMS5003;42565;53.342;-1.534;2023-06-24T12:12:34;2;2;
56688;PMS5003;42565;53.342;-1.534;2023-06-24T12:15:02;2;2;
56688;PMS5003;42565;53.342;-1.534;2023-06-24T12:17:29;2;2;
56688;PMS5003;42565;53.342;-1.534;2023-06-24T12:19:56;2;2;
56688;PMS5003;42565;53.342;-1.534;2023-06-24T12:22:23;0;0;
56688;PMS5003;42565;53.342;-1.534;2023-06-24T12:24:51;1;1;
56688;PMS5003;42565;53.342;-1.534;2023-06-24T12:27:19;2;2;
56688;PMS5003;42565;53.342;-1.534;2023-06-24T12:29:46;2;1;
56688;PMS5003;42565;53.342;-1.534;2023-06-24T12:32:13;1;1;
56688;PMS5003;42565;53.342;-1.534;2023-06-24T12:34:46;2;2;
56688;PMS5003;42565;53.342;-1.534;2023-06-24T12:37:13;2;2;
56688;PMS5003;42565;53.342;-1.534;2023-06-24T12:39:40;2;2;
56688;PMS5003;42565;53.342;-1.534;2023-06-24T12:42:08;2;2;
56688;PMS5003;42565;53.342;-1.534;2023-06-24T12:44:35;2;2;
56688;PMS5003;42565;53.342;-1.534;2023-06-24T12:47:03;3;3;
56688;PMS5003;42565;53.342;-1.534;2023-06-24T12:49:30;1;1;
56688;PMS5003;42565;53.342;-1.534;2023-06-24T12:51:58;2;2;
56688;PMS5003;42565;53.342;-1.534;2023-06-24T12:54:25;1;1;
56688;PMS5003;42565;53.342;-1.534;2023-06-24T12:56:53;1;1;
56688;PMS5003;42565;53.342;-1.534;2023-06-24T12:59:19;2;2;
56688;PMS5003;42565;53.342;-1.534;2023-06-24T13:01:47;1;1;
56688;PMS5003;42565;53.342;-1.534;2023-06-24T13:04:13;1;1;
56688;PMS5003;42565;53.342;-1.534;2023-06-24T13:06:41;1;1;
56688;PMS5003;42565;53.342;-1.534;2023-06-24T13:09:08;3;3;
56688;PMS5003;42565;53.342;-1.534;2023-06-24T13:11:36;2;1;
56688;PMS5003;42565;53.342;-1.534;2023-06-24T13:14:03;3;3;
56688;PMS5003;42565;53.342;-1.534;2023-06-24T13:16:36;3;3;
56688;PMS5003;42565;53.342;-1.534;2023-06-24T13:19:03;1;1;
56688;PMS5003;42565;53.342;-1.534;2023-06-24T13:21:31;2;2;
56688;PMS5003;42565;53.342;-1.534;2023-06-24T13:23:58;2;2;
56688;PMS5003;42565;53.342;-1.534;2023-06-24T13:26:26;1;1;
56688;PMS5003;42565;53.342;-1.534;2023-06-24T13:28:53;3;3;
56688;PMS5003;42565;53.342;-1.534;2023-06-24T13:31:21;3;2;
56688;PMS5003;42565;53.342;-1.534;2023-06-24T13:33:48;2;2;
56688;PMS5003;42565;53.342;-1.534;2023-06-24T13:36:27;2;2;
56688;PMS5003;42565;53.342;-1.534;2023-06-24T13:38:57;2;2;
56688;PMS5003;42565;53.342;-1.534;2023-06-24T13:41:24;2;2;
56688;PMS5003;42565;53.342;-1.534;2023-06-24T13:43:51;2;2;
56688;PMS5003;42565;53.342;-1.534;2023-06-24T13:46:19;2;2;
56688;PMS5003;42565;53.342;-1.534;2023-06-24T13:48:46;2;2;
56688;PMS5003;42565;53.342;-1.534;2023-06-24T13:51:14;3;3;
56688;PMS5003;42565;53.342;-1.534;2023-06-24T13:53:41;0;0;
56688;PMS5003;42565;53.342;-1.534;2023-06-24T13:56:09;2;2;
56688;PMS5003;42565;53.342;-1.534;2023-06-24T13:58:36;2;2;
56688;PMS5003;42565;53.342;-1.534;2023-06-24T14:01:04;2;2;
56688;PMS5003;42565;53.342;-1.534;2023-06-24T14:03:31;2;2;
56688;PMS5003;42565;53.342;-1.534;2023-06-24T14:05:59;3;3;
56688;PMS5003;42565;53.342;-1.534;2023-06-24T14:08:25;2;2;
56688;PMS5003;42565;53.342;-1.534;2023-06-24T14:10:53;2;2;
56688;PMS5003;42565;53.342;-1.534;2023-06-24T14:13:20;1;1;
56688;PMS5003;42565;53.342;-1.534;2023-06-24T14:15:48;3;2;
56688;PMS5003;42565;53.342;-1.534;2023-06-24T14:18:15;3;2;
56688;PMS5003;42565;53.342;-1.534;2023-06-24T14:20:43;1;1;
56688;PMS5003;42565;53.342;-1.534;2023-06-24T14:23:10;0;0;
56688;PMS5003;42565;53.342;-1.534;2023-06-24T14:25:38;2;2;
56688;PMS5003;42565;53.342;-1.534;2023-06-24T14:28:06;5;5;
56688;PMS5003;42565;53.342;-1.534;2023-06-24T14:30:33;2;2;
56688;PMS5003;42565;53.342;-1.534;2023-06-24T14:33:00;2;2;
56688;PMS5003;42565;53.342;-1.534;2023-06-24T14:35:28;2;2;
56688;PMS5003;42565;53.342;-1.534;2023-06-24T14:37:55;2;2;
56688;PMS5003;42565;53.342;-1.534;2023-06-24T14:40:22;2;2;
56688;PMS5003;42565;53.342;-1.534;2023-06-24T14:42:50;2;2;
56688;PMS5003;42565;53.342;-1.534;2023-06-24T14:45:18;3;3;
56688;PMS5003;42565;53.342;-1.534;2023-06-24T14:47:45;3;3;
56688;PMS5003;42565;53.342;-1.534;2023-06-24T14:50:12;2;2;
56688;PMS5003;42565;53.342;-1.534;2023-06-24T14:52:40;2;2;
56688;PMS5003;42565;53.342;-1.534;2023-06-24T14:55:08;2;2;
56688;PMS5003;42565;53.342;-1.534;2023-06-24T14:57:35;2;2;
56688;PMS5003;42565;53.342;-1.534;2023-06-24T15:00:03;4;3;
56688;PMS5003;42565;53.342;-1.534;2023-06-24T15:02:30;4;3;
56688;PMS5003;42565;53.342;-1.534;2023-06-24T15:04:57;1;1;
56688;PMS5003;42565;53.342;-1.534;2023-06-24T15:07:24;2;2;
56688;PMS5003;42565;53.342;-1.534;2023-06-24T15:09:52;3;3;
56688;PMS5003;42565;53.342;-1.534;2023-06-24T15:12:19;2;2;
56688;PMS5003;42565;53.342;-1.534;2023-06-24T15:14:46;1;1;
56688;PMS5003;42565;53.342;-1.534;2023-06-24T15:17:13;4;3;
56688;PMS5003;42565;53.342;-1.534;2023-06-24T15:19:41;2;2;
56688;PMS5003;42565;53.342;-1.534;2023-06-24T15:22:08;2;2;
56688;PMS5003;42565;53.342;-1.534;2023-06-24T15:24:37;2;2;
56688;PMS5003;42565;53.342;-1.534;2023-06-24T15:27:04;6;4;
56688;PMS5003;42565;53.342;-1.534;2023-06-24T15:29:31;2;2;
56688;PMS5003;42565;53.342;-1.534;2023-06-24T15:31:59;2;2;
56688;PMS5003;42565;53.342;-1.534;2023-06-24T15:34:27;3;3;
56688;PMS5003;42565;53.342;-1.534;2023-06-24T15:36:54;3;3;
56688;PMS5003;42565;53.342;-1.534;2023-06-24T15:39:21;3;3;
56688;PMS5003;42565;53.342;-1.534;2023-06-24T15:41:48;3;3;
56688;PMS5003;42565;53.342;-1.534;2023-06-24T15:44:15;2;2;
56688;PMS5003;42565;53.342;-1.534;2023-06-24T15:46:43;2;2;
56688;PMS5003;42565;53.342;-1.534;2023-06-24T15:49:11;2;2;
56688;PMS5003;42565;53.342;-1.534;2023-06-24T15:51:38;4;3;
56688;PMS5003;42565;53.342;-1.534;2023-06-24T15:54:05;3;3;
56688;PMS5003;42565;53.342;-1.534;2023-06-24T15:56:33;3;3;
56688;PMS5003;42565;53.342;-1.534;2023-06-24T15:59:00;3;3;
56688;PMS5003;42565;53.342;-1.534;2023-06-24T16:01:28;2;2;
56688;PMS5003;42565;53.342;-1.534;2023-06-24T16:03:55;2;2;
56688;PMS5003;42565;53.342;-1.534;2023-06-24T16:06:22;4;4;
56688;PMS5003;42565;53.342;-1.534;2023-06-24T16:08:50;4;3;
56688;PMS5003;42565;53.342;-1.534;2023-06-24T16:11:17;3;3;
56688;PMS5003;42565;53.342;-1.534;2023-06-24T16:13:45;3;3;
56688;PMS5003;42565;53.342;-1.534;2023-06-24T16:16:12;3;3;
56688;PMS5003;42565;53.342;-1.534;2023-06-24T16:18:40;5;4;
56688;PMS5003;42565;53.342;-1.534;2023-06-24T16:21:07;3;3;
56688;PMS5003;42565;53.342;-1.534;2023-06-24T16:23:34;5;5;
56688;PMS5003;42565;53.342;-1.534;2023-06-24T16:26:02;5;5;
56688;PMS5003;42565;53.342;-1.534;2023-06-24T16:28:29;3;3;
56688;PMS5003;42565;53.342;-1.534;2023-06-24T16:30:57;5;5;
56688;PMS5003;42565;53.342;-1.534;2023-06-24T16:33:24;5;5;
56688;PMS5003;42565;53.342;-1.534;2023-06-24T16:35:51;5;5;
56688;PMS5003;42565;53.342;-1.534;2023-06-24T16:38:18;3;3;
56688;PMS5003;42565;53.342;-1.534;2023-06-24T16:40:45;3;3;
56688;PMS5003;42565;53.342;-1.534;2023-06-24T16:43:13;5;4;
56688;PMS5003;42565;53.342;-1.534;2023-06-24T16:45:40;4;4;